Beverly Hills, CA (90210)

12:18 PM PST on March 05, 2015 (GMT -0800)
West Hollywood | Change Station
CLOSE
Current Station
Personal Weather Station
Location: West Hollywood, CA
Elevation: 217 ft
Nearby Weather Stations

Elev 217 ft 34.09 °N, 118.38 °W | Updated 9 minutes ago

Clear
Clear
76.4 °F
Feels Like 76 °F
N
4.0
Wind Variable Wind from South
Gusts 9.0 mph

Today
High -- | Low -- °F
--% Chance of Precip.
Yesterday
High -- | Low -- °F
Precip. -- in
6:17 AM 5:53 PM
Full, 100% visible
Pressure 30.25 in
Visibility 10.0 miles
Clouds Clear
Heat Index 76 °F
Dew Point 25 °F
Humidity 15%
Rainfall in
Snow Depth Not available.
UV 7 out of 12
Pollen 9.10 out of 12
Air Quality Not available.
Flu Activity Not available.
METAR KSMO 051951Z 25007KT 10SM CLR 23/M06 A3025 RMK AO2 SLP242 T02331056

More Conditions Fewer Conditions

Pressure 30.25 in
Visibility 10.0 miles
Clouds Clear
Heat Index 76 °F
Dew Point 25 °F
Humidity 15%
Rainfall in
Snow Depth Not available.
UV 7 out of 12
Pollen 9.10 out of 12
Air Quality Not available.
Flu Activity Not available.
METAR KSMO 051951Z 25007KT 10SM CLR 23/M06 A3025 RMK AO2 SLP242 T02331056

More Conditions Fewer Conditions

10-Day Weather Forecast

Almanac

Astronomy

Mar. 05, 2015 Rise Set
Actual Time
Civil Twilight
Nautical Twilight
Astronomical Twilight
Moon
Length of Visible Light
Length of Day
Tomorrow will be .
, % of the Moon is Illuminated

Today's Extremes

State Highs State Lows

Community

WunderPhotos

Upload Photos

1,802,938 photos uploaded!

WunderBlogs® & News

Nearby

Air Quality

  Air Quality AQ Index Pollutant
Not available.

Snow Depth

Station Depth Elevation

Earthquake Activity

City Distance Mag. Time & Date
Minimum magnitude displayed is 2.5.

Coastal Water Temperatures

Place Temperature

Nearby Weather Stations